Terminal Aerodrome Forecast
Issued by NWS

Home | Current Version | Previous Version | Text Only | Print | Product List | Glossary On
Versions: 1 2 3 4 5 6 7 8 9 10 11 12 13 14 15 16 17 18 19 20 21 22 23 24 25 26 27 28 29 30 31 32 33 34
000
FTUS43 KGRB 051139
TAFRHI
TAF
KRHI 051139Z 0512/0612 25007KT P6SM SCT015 BKN028
      TEMPO 0512/0516 3SM BR BKN015
     FM051600 20004KT P6SM SCT010 BKN015
     FM051800 17006KT P6SM BKN010
     FM052100 17009KT P6SM -SN BKN015 WS020/21035KT PROB30 0600/0606
      -FZDZSN BKN009
     FM060600 16009KT 4SM BR OVC007 PROB30 0606/0612 4SM -SN OVC007=

USA.gov is the U.S. government's official web portal to all federal, state and local government web resources and services.